This is the latest recevied weather packets stored in our database for station/object KG2V. If no packets are shown the sender has not sent any weather packets the latest 10 day(s).
| Time | Temp. | Humidity | Pressure | Rain* | Wind** | Luminosity | Snow |
|---|---|---|---|---|---|---|---|
| 1778271284 | 15° C | 39% | 1006.4 hPa | 0 mm | - | 487 W/m² | - |
| 1778270981 | 15° C | 39% | 1006.5 hPa | 0 mm | - | 501 W/m² | - |
| 1778270678 | 14.44° C | 43% | 1006.6 hPa | 0 mm | - | 537 W/m² | - |
| 1778270373 | 15° C | 41% | 1006.4 hPa | 0 mm | - | 568 W/m² | - |
| 1778270071 | 13.89° C | 41% | 1006.7 hPa | 0 mm | - | 561 W/m² | - |
| 1778269766 | 13.33° C | 46% | 1006.6 hPa | 0 mm | - | 593 W/m² | - |
| 1778269464 | 13.89° C | 44% | 1006.6 hPa | 0 mm | - | 582 W/m² | - |
| 1778269161 | 13.89° C | 45% | 1006.6 hPa | 0 mm | - | 245 W/m² | - |
| 1778268858 | 13.89° C | 42% | 1006.9 hPa | 0 mm | - | 719 W/m² | - |
| 1778268554 | 14.44° C | 44% | 1007 hPa | 0 mm | - | 664 W/m² | - |
| 1778268251 | 14.44° C | 45% | 1006.9 hPa | 0 mm | - | 619 W/m² | - |
| 1778267948 | 13.33° C | 43% | 1007 hPa | 0 mm | - | 684 W/m² | - |
| 1778267646 | 13.33° C | 44% | 1007 hPa | 0 mm | - | 729 W/m² | - |
| 1778267342 | 12.78° C | 47% | 1007.3 hPa | 0 mm | - | 162 W/m² | - |
| 1778267039 | 13.89° C | 44% | 1007.1 hPa | 0 mm | - | 671 W/m² | - |
| 1778266735 | 12.78° C | 45% | 1007.2 hPa | 0 mm | - | 665 W/m² | - |
| 1778266433 | 12.22° C | 46% | 1007.2 hPa | 0 mm | - | 685 W/m² | - |
| 1778266130 | 12.78° C | 46% | 1007.3 hPa | 0 mm | - | 174 W/m² | - |
| 1778265827 | 13.89° C | 45% | 1007.3 hPa | 0 mm | - | 766 W/m² | - |
| 1778265524 | 13.89° C | 45% | 1007.1 hPa | 0 mm | - | 725 W/m² | - |
| 1778265220 | 12.78° C | 45% | 1007.2 hPa | 0 mm | - | 758 W/m² | - |
| 1778264916 | 13.89° C | 45% | 1007.2 hPa | 0 mm | - | 720 W/m² | - |
| 1778264613 | 12.78° C | 47% | 1007.3 hPa | 0 mm | - | 571 W/m² | - |
| 1778264309 | 11.67° C | 55% | 1007.2 hPa | 0 mm | - | 789 W/m² | - |
| 1778264006 | 13.33° C | 49% | 1007.3 hPa | 0 mm | - | 776 W/m² | - |
* Rain latest hour (hover to see other rain measurements)
** Current wind speed in m/s (hover to see current wind gust speed)